Time;durP1;ratioP1;P1;durP2;ratioP2;P2;SDS_P1;SDS_P2;PMS_P1;PMS_P2;Temp;Humidity;BMP_temperature;BMP_pressure;BME280_temperature;BME280_humidity;BME280_pressure;Samples;Min_cycle;Max_cycle;Signal;HPM_P1;HPM_P2
2022/04/13 00:01:54;;;;;;;3.60;2.25;;;15.70;95.00;;;;;;5047504;28;20442;-41
2022/04/13 00:04:19;;;;;;;5.82;2.60;;;15.70;95.00;;;;;;5048427;28;20476;-43
2022/04/13 00:06:45;;;;;;;5.57;2.50;;;15.70;95.00;;;;;;5048472;28;20033;-40
2022/04/13 00:09:10;;;;;;;4.55;2.47;;;15.60;95.10;;;;;;5048104;28;20508;-41
2022/04/13 00:11:36;;;;;;;5.35;2.63;;;15.60;95.10;;;;;;5048730;28;20476;-40
2022/04/13 00:14:03;;;;;;;5.47;2.28;;;15.50;95.10;;;;;;5048066;28;20029;-38
2022/04/13 00:16:29;;;;;;;4.65;2.58;;;15.50;95.20;;;;;;5048257;28;20033;-39
2022/04/13 00:18:55;;;;;;;4.00;2.28;;;15.50;95.30;;;;;;5048058;28;20048;-40
2022/04/13 00:21:20;;;;;;;4.32;2.25;;;15.40;95.30;;;;;;5048112;28;20021;-41
2022/04/13 00:23:46;;;;;;;4.47;2.20;;;15.40;95.40;;;;;;5047128;28;20040;-40
2022/04/13 00:26:12;;;;;;;6.22;2.78;;;15.40;95.50;;;;;;5047134;28;20017;-41
2022/04/13 00:28:37;;;;;;;3.80;2.40;;;15.30;95.50;;;;;;5047691;28;20444;-42
2022/04/13 00:31:03;;;;;;;3.00;2.20;;;15.30;95.60;;;;;;5047479;28;20465;-42
2022/04/13 00:33:28;;;;;;;5.70;3.10;;;15.30;95.60;;;;;;5048278;28;20473;-40
2022/04/13 00:35:55;;;;;;;4.70;2.42;;;15.20;95.60;;;;;;5046843;28;20095;-42
2022/04/13 00:38:23;;;;;;;5.30;2.05;;;15.20;95.70;;;;;;5047754;28;20037;-42
2022/04/13 00:40:49;;;;;;;4.07;2.65;;;15.20;95.80;;;;;;5046806;28;20084;-43
2022/04/13 00:43:15;;;;;;;4.15;2.22;;;15.20;95.90;;;;;;5047076;28;20256;-42
2022/04/13 00:45:45;;;;;;;6.03;2.50;;;15.20;95.90;;;;;;5047162;28;20522;-43
2022/04/13 00:48:26;;;;;;;7.45;2.40;;;15.20;95.90;;;;;;5047980;28;20032;-43
2022/04/13 00:50:52;;;;;;;3.70;2.20;;;15.20;96.00;;;;;;5046310;28;20025;-42
2022/04/13 00:53:19;;;;;;;4.90;2.72;;;15.10;95.90;;;;;;5047928;28;20477;-42
2022/04/13 00:55:46;;;;;;;3.95;2.35;;;15.10;96.00;;;;;;5047437;28;20029;-42
2022/04/13 00:58:15;;;;;;;5.90;2.63;;;15.10;96.10;;;;;;5046508;28;20802;-41
2022/04/13 01:00:48;;;;;;;6.00;2.63;;;15.10;96.10;;;;;;5047585;28;20044;-42
2022/04/13 01:03:17;;;;;;;5.40;2.60;;;15.10;96.20;;;;;;5048243;28;20384;-42
2022/04/13 01:05:44;;;;;;;4.18;2.65;;;15.00;96.30;;;;;;5046089;28;20025;-41
2022/04/13 01:08:11;;;;;;;4.82;2.30;;;15.00;96.40;;;;;;5037042;28;20025;-42
2022/04/13 01:10:40;;;;;;;6.07;2.65;;;14.90;96.50;;;;;;5046927;28;20044;-43
2022/04/13 01:13:05;;;;;;;6.35;3.05;;;14.90;96.60;;;;;;5046562;28;20104;-42
2022/04/13 01:15:31;;;;;;;5.60;2.90;;;14.90;96.60;;;;;;5046942;28;20049;-40
2022/04/13 01:17:56;;;;;;;7.55;2.70;;;14.80;96.70;;;;;;5045616;28;20021;-42
2022/04/13 01:20:23;;;;;;;5.85;2.58;;;14.80;96.80;;;;;;5047278;28;20043;-43
2022/04/13 01:22:49;;;;;;;5.32;2.88;;;14.70;96.80;;;;;;5046516;28;20036;-42
2022/04/13 01:25:14;;;;;;;6.07;3.30;;;14.70;96.90;;;;;;5046575;28;20025;-42
2022/04/13 01:27:40;;;;;;;5.22;2.63;;;14.60;97.00;;;;;;5046481;28;20051;-43
2022/04/13 01:30:07;;;;;;;5.05;2.75;;;14.60;97.10;;;;;;5047029;28;20091;-43
2022/04/13 01:32:33;;;;;;;6.80;2.50;;;14.60;97.10;;;;;;5046340;28;20483;-43
2022/04/13 01:34:59;;;;;;;3.45;2.70;;;14.60;97.20;;;;;;5046664;28;20075;-42
2022/04/13 01:37:24;;;;;;;5.78;2.95;;;14.50;97.20;;;;;;5046735;28;20043;-43
2022/04/13 01:39:54;;;;;;;4.53;2.78;;;14.50;97.20;;;;;;5045509;28;20029;-42
2022/04/13 01:42:20;;;;;;;6.55;2.90;;;14.40;97.30;;;;;;5047031;28;20071;-42
2022/04/13 01:44:46;;;;;;;5.75;2.90;;;14.40;97.30;;;;;;5045955;28;20079;-41
2022/04/13 01:47:11;;;;;;;7.03;3.10;;;14.30;97.40;;;;;;5045878;28;20430;-42
2022/04/13 01:49:37;;;;;;;7.10;3.17;;;14.30;97.50;;;;;;5046655;28;20029;-43
2022/04/13 01:52:04;;;;;;;6.47;3.20;;;14.20;97.50;;;;;;5045474;28;20358;-42
2022/04/13 01:54:30;;;;;;;4.70;2.60;;;14.20;97.60;;;;;;5045989;28;20090;-42
2022/04/13 01:56:59;;;;;;;5.55;3.10;;;14.20;97.60;;;;;;5045874;28;20017;-42
2022/04/13 01:59:25;;;;;;;5.07;3.30;;;14.20;97.70;;;;;;5046338;28;20041;-42
2022/04/13 02:01:50;;;;;;;7.05;3.70;;;14.10;97.70;;;;;;5045957;28;20368;-40
2022/04/13 02:04:26;;;;;;;6.35;3.35;;;14.10;97.80;;;;;;5046173;28;20457;-41
2022/04/13 02:06:52;;;;;;;5.63;3.20;;;14.10;98.00;;;;;;5025942;28;20551;-41
2022/04/13 02:09:18;;;;;;;4.95;3.00;;;14.00;98.00;;;;;;5043327;28;20044;-42
2022/04/13 02:11:44;;;;;;;6.82;3.03;;;14.00;98.00;;;;;;5045812;28;20032;-41
2022/04/13 02:14:13;;;;;;;5.68;3.17;;;14.00;98.10;;;;;;5045068;28;20183;-42
2022/04/13 02:16:39;;;;;;;6.57;3.38;;;14.00;98.20;;;;;;5046324;28;20158;-42
2022/04/13 02:19:07;;;;;;;5.22;3.33;;;13.90;98.20;;;;;;5045187;28;20214;-42
2022/04/13 02:21:33;;;;;;;5.28;3.50;;;13.90;98.30;;;;;;5045660;28;20037;-42
2022/04/13 02:23:59;;;;;;;6.30;3.63;;;13.90;98.40;;;;;;5046187;28;20024;-42
2022/04/13 02:26:25;;;;;;;8.48;3.60;;;13.90;98.40;;;;;;5046078;28;20029;-41
2022/04/13 02:28:51;;;;;;;7.70;3.35;;;13.90;98.50;;;;;;5044858;28;20550;-42
2022/04/13 02:31:17;;;;;;;6.05;3.20;;;13.90;98.50;;;;;;5045914;28;20029;-43
2022/04/13 02:33:43;;;;;;;7.53;3.92;;;13.90;98.60;;;;;;5045466;28;20032;-42
2022/04/13 02:36:08;;;;;;;5.57;3.28;;;13.90;98.60;;;;;;5045693;28;20021;-42
2022/04/13 02:38:34;;;;;;;7.07;3.47;;;13.90;98.70;;;;;;5045459;28;20174;-43
2022/04/13 02:41:02;;;;;;;5.85;3.42;;;13.90;98.70;;;;;;5044848;28;20029;-42
2022/04/13 02:43:28;;;;;;;4.70;3.05;;;13.90;98.80;;;;;;5045339;28;20021;-41
2022/04/13 02:45:54;;;;;;;7.47;3.42;;;13.90;98.70;;;;;;5045420;28;20040;-42
2022/04/13 02:48:20;;;;;;;5.57;3.88;;;13.90;98.80;;;;;;5045717;28;20025;-42
2022/04/13 02:50:46;;;;;;;7.95;3.60;;;13.90;98.80;;;;;;5044458;28;20036;-43
2022/04/13 02:53:12;;;;;;;5.60;3.72;;;13.90;98.80;;;;;;5045657;28;20025;-43
2022/04/13 02:55:37;;;;;;;6.40;3.60;;;13.90;98.90;;;;;;5044954;28;20497;-42
2022/04/13 02:58:03;;;;;;;8.10;3.88;;;13.90;98.90;;;;;;5044053;28;20067;-42
2022/04/13 03:00:29;;;;;;;6.95;3.45;;;13.90;99.00;;;;;;5045805;28;20488;-42
2022/04/13 03:02:55;;;;;;;8.65;4.00;;;13.90;99.00;;;;;;5044910;28;20029;-41
2022/04/13 03:05:20;;;;;;;8.90;4.30;;;14.00;99.10;;;;;;5044159;28;20025;-39
2022/04/13 03:07:46;;;;;;;7.78;3.90;;;14.00;99.20;;;;;;5044446;28;20024;-41
2022/04/13 03:10:11;;;;;;;7.28;4.32;;;14.00;99.10;;;;;;5044919;28;20021;-42
2022/04/13 03:12:37;;;;;;;6.40;4.30;;;14.00;99.10;;;;;;5045019;28;20032;-42
2022/04/13 03:15:06;;;;;;;5.88;3.67;;;14.00;99.10;;;;;;5045111;28;20033;-42
2022/04/13 03:17:32;;;;;;;6.85;3.97;;;14.00;99.20;;;;;;5033573;28;20021;-41
2022/04/13 03:19:58;;;;;;;5.93;4.30;;;14.00;99.20;;;;;;5044331;28;20146;-41
2022/04/13 03:22:24;;;;;;;5.57;3.90;;;14.00;99.50;;;;;;5045086;28;20046;-42
2022/04/13 03:24:51;;;;;;;6.28;4.20;;;14.00;99.30;;;;;;5044418;28;20049;-42
2022/04/13 03:27:17;;;;;;;9.35;4.18;;;14.00;99.30;;;;;;5045049;28;20024;-43
2022/04/13 03:29:42;;;;;;;9.07;4.70;;;13.90;99.40;;;;;;5044307;28;20039;-43
2022/04/13 03:32:08;;;;;;;9.60;5.10;;;13.90;99.50;;;;;;5044801;28;20041;-42
2022/04/13 03:34:34;;;;;;;9.98;4.63;;;14.00;99.50;;;;;;5045070;28;20102;-42
2022/04/13 03:36:59;;;;;;;5.10;4.30;;;13.90;99.60;;;;;;5044527;28;20052;-42
2022/04/13 03:39:25;;;;;;;9.25;5.38;;;13.90;99.60;;;;;;5044323;28;20044;-43
2022/04/13 03:41:51;;;;;;;8.00;4.85;;;13.90;99.70;;;;;;5044058;28;20028;-43
2022/04/13 03:44:17;;;;;;;7.93;4.72;;;13.90;99.70;;;;;;5044936;28;20032;-43
2022/04/13 03:46:43;;;;;;;7.55;5.25;;;13.90;99.80;;;;;;5044151;28;20029;-41
2022/04/13 03:49:08;;;;;;;8.23;5.00;;;13.80;99.80;;;;;;5045163;28;20039;-42
2022/04/13 03:51:34;;;;;;;7.95;4.60;;;13.80;99.90;;;;;;5044555;28;20044;-42
2022/04/13 03:54:00;;;;;;;7.70;5.68;;;13.80;99.90;;;;;;5043650;28;20056;-42
2022/04/13 03:56:26;;;;;;;7.55;4.88;;;13.70;99.90;;;;;;5044987;28;20123;-42
2022/04/13 03:58:51;;;;;;;7.75;5.25;;;13.70;99.90;;;;;;5033270;28;20126;-42
2022/04/13 04:01:17;;;;;;;8.27;5.55;;;13.60;99.90;;;;;;5044127;28;20086;-43
2022/04/13 04:03:42;;;;;;;6.57;4.82;;;13.60;99.90;;;;;;5044074;28;20029;-42
2022/04/13 04:06:08;;;;;;;7.63;5.38;;;13.50;99.90;;;;;;5044681;28;20035;-41
2022/04/13 04:08:34;;;;;;;7.70;5.38;;;13.50;99.90;;;;;;5043636;28;20698;-42
2022/04/13 04:11:00;;;;;;;6.07;4.88;;;13.40;99.90;;;;;;5044413;28;20029;-42
2022/04/13 04:13:25;;;;;;;7.50;5.15;;;13.40;99.90;;;;;;5044927;28;20476;-42
2022/04/13 04:15:51;;;;;;;6.80;5.15;;;13.30;99.90;;;;;;5044554;28;20040;-42
2022/04/13 04:18:16;;;;;;;7.75;5.22;;;13.20;99.90;;;;;;5048218;28;20028;-41
2022/04/13 04:20:42;;;;;;;8.10;5.50;;;13.20;99.90;;;;;;5047125;28;20025;-41
2022/04/13 04:23:10;;;;;;;9.38;5.40;;;13.10;99.90;;;;;;5048041;28;20025;-43
2022/04/13 04:25:36;;;;;;;9.18;5.50;;;13.10;99.90;;;;;;5048324;28;20025;-42
2022/04/13 04:28:03;;;;;;;10.73;6.15;;;13.10;99.90;;;;;;5047086;28;20500;-42
2022/04/13 04:30:31;;;;;;;8.35;5.93;;;13.00;99.90;;;;;;5047914;28;20029;-42
2022/04/13 04:33:00;;;;;;;7.05;5.40;;;12.90;99.90;;;;;;5047701;28;20401;-42
2022/04/13 04:35:25;;;;;;;7.65;5.43;;;12.90;99.90;;;;;;5047407;28;20037;-43
2022/04/13 04:37:51;;;;;;;9.57;5.45;;;12.80;99.90;;;;;;5047633;28;20086;-43
2022/04/13 04:40:16;;;;;;;8.95;6.07;;;12.80;99.90;;;;;;5048230;28;20152;-41
2022/04/13 04:42:49;;;;;;;6.88;5.47;;;12.70;99.90;;;;;;5046502;28;20115;-41
2022/04/13 04:45:18;;;;;;;;;;;12.60;99.90;;;;;;5048447;28;20056;-43
2022/04/13 04:47:43;;;;;;;8.65;6.10;;;12.50;99.90;;;;;;5047753;28;20011;-41
2022/04/13 04:50:10;;;;;;;9.13;5.75;;;12.50;99.90;;;;;;5043578;28;20170;-43
2022/04/13 04:52:40;;;;;;;8.93;5.65;;;12.50;99.90;;;;;;5048029;28;20124;-40
2022/04/13 04:55:06;;;;;;;9.68;5.90;;;12.50;99.90;;;;;;5047378;28;20020;-43
2022/04/13 04:57:31;;;;;;;10.80;6.53;;;12.40;99.90;;;;;;5047517;28;20048;-40
2022/04/13 04:59:57;;;;;;;7.88;6.13;;;12.40;99.90;;;;;;5047206;28;20037;-40
2022/04/13 05:02:22;;;;;;;10.60;6.55;;;12.40;99.90;;;;;;5048480;28;20711;-44
2022/04/13 05:04:48;;;;;;;12.73;6.60;;;12.40;99.90;;;;;;5046403;28;20025;-43
2022/04/13 05:07:19;;;;;;;11.45;6.75;;;12.40;99.90;;;;;;5063774;28;20024;-44
2022/04/13 05:09:45;;;;;;;11.02;6.47;;;12.40;99.90;;;;;;5054193;28;20048;-42
2022/04/13 05:12:10;;;;;;;7.60;5.90;;;12.40;99.90;;;;;;5046921;28;20017;-43
2022/04/13 05:14:36;;;;;;;7.25;6.28;;;12.40;99.90;;;;;;5044809;28;20025;-43
2022/04/13 05:17:02;;;;;;;11.05;6.13;;;12.40;99.90;;;;;;5044840;28;20521;-42
2022/04/13 05:19:27;;;;;;;13.90;6.85;;;12.40;99.90;;;;;;5046670;28;20542;-40
2022/04/13 05:21:53;;;;;;;10.00;6.65;;;12.40;99.90;;;;;;5046067;28;20032;-44
2022/04/13 05:24:18;;;;;;;10.82;6.47;;;12.40;99.90;;;;;;5046151;28;20650;-42
2022/04/13 05:26:44;;;;;;;12.10;6.75;;;12.40;99.90;;;;;;5045503;28;20052;-42
2022/04/13 05:29:09;;;;;;;8.68;6.50;;;12.40;99.90;;;;;;5045699;28;20137;-41
2022/04/13 05:31:35;;;;;;;9.32;7.22;;;12.50;99.90;;;;;;5046426;28;20406;-43
2022/04/13 05:34:00;;;;;;;10.05;6.10;;;12.50;99.90;;;;;;5046951;28;20028;-42
2022/04/13 05:36:26;;;;;;;12.30;6.88;;;12.70;99.90;;;;;;5046896;28;20096;-40
2022/04/13 05:38:52;;;;;;;12.85;6.72;;;12.70;99.90;;;;;;5045390;28;20073;-41
2022/04/13 05:41:17;;;;;;;7.85;6.50;;;12.80;99.90;;;;;;5046876;28;20040;-42
2022/04/13 05:43:42;;;;;;;9.90;7.07;;;12.90;99.90;;;;;;5046407;28;20387;-40
2022/04/13 05:46:08;;;;;;;14.35;7.47;;;13.00;99.90;;;;;;5045981;28;20047;-42
2022/04/13 05:48:34;;;;;;;9.23;6.53;;;13.00;99.90;;;;;;5046826;28;20036;-42
2022/04/13 05:50:59;;;;;;;8.02;5.85;;;13.10;99.90;;;;;;5046469;28;20091;-42
2022/04/13 05:53:25;;;;;;;9.18;5.95;;;13.20;99.90;;;;;;5046335;28;20064;-42
2022/04/13 05:55:55;;;;;;;7.78;6.32;;;13.20;99.90;;;;;;5045783;28;20037;-41
2022/04/13 05:58:26;;;;;;;8.85;6.53;;;13.20;99.90;;;;;;5046388;28;20053;-42
2022/04/13 06:00:52;;;;;;;8.57;6.47;;;13.20;99.90;;;;;;5044991;28;20040;-42
2022/04/13 06:03:18;;;;;;;9.50;6.55;;;13.20;99.90;;;;;;5046006;28;20484;-42
2022/04/13 06:05:45;;;;;;;9.23;6.70;;;13.20;99.90;;;;;;5045556;28;20021;-41
2022/04/13 06:08:10;;;;;;;11.77;7.13;;;13.20;99.90;;;;;;5044122;28;20037;-41
2022/04/13 06:10:36;;;;;;;7.90;6.03;;;13.30;99.90;;;;;;5044586;28;20161;-40
2022/04/13 06:13:07;;;;;;;9.70;6.88;;;13.30;99.90;;;;;;5044303;28;20124;-41
2022/04/13 06:15:33;;;;;;;9.38;6.78;;;13.40;99.90;;;;;;5044340;28;20052;-41
2022/04/13 06:17:59;;;;;;;7.93;6.22;;;13.40;99.90;;;;;;5044337;28;20123;-41
2022/04/13 06:20:24;;;;;;;10.05;6.93;;;13.40;99.90;;;;;;5044562;28;20074;-41
2022/04/13 06:22:52;;;;;;;10.75;7.18;;;13.40;99.90;;;;;;5044206;28;20595;-42
2022/04/13 06:25:18;;;;;;;11.90;7.55;;;13.50;99.90;;;;;;5045794;28;20066;-42
2022/04/13 06:27:44;;;;;;;10.07;7.88;;;13.50;99.90;;;;;;5044889;28;20036;-43
2022/04/13 06:30:11;;;;;;;10.85;7.70;;;13.50;99.90;;;;;;5046006;28;20036;-42
2022/04/13 06:32:38;;;;;;;13.07;7.97;;;13.50;99.90;;;;;;5045375;28;20025;-43
2022/04/13 06:35:05;;;;;;;11.75;7.75;;;13.60;99.90;;;;;;5045170;28;20028;-42
2022/04/13 06:37:32;;;;;;;11.27;8.07;;;13.70;99.90;;;;;;5045283;28;20021;-42
2022/04/13 06:39:58;;;;;;;11.32;7.38;;;13.80;99.90;;;;;;5044012;28;20492;-42
2022/04/13 06:42:23;;;;;;;10.30;7.38;;;13.90;99.90;;;;;;5045241;28;20032;-43
2022/04/13 06:44:52;;;;;;;12.63;8.32;;;14.00;99.90;;;;;;5044767;28;20452;-43
2022/04/13 06:47:18;;;;;;;9.90;8.75;;;14.10;99.90;;;;;;5045493;28;20025;-43
2022/04/13 06:49:45;;;;;;;8.57;7.50;;;14.10;99.90;;;;;;5044924;28;20040;-42
2022/04/13 06:52:12;;;;;;;10.60;7.93;;;14.20;99.90;;;;;;5045835;28;20104;-45
2022/04/13 06:54:37;;;;;;;9.38;8.07;;;14.20;99.90;;;;;;5045122;28;20362;-39
2022/04/13 06:57:03;;;;;;;10.13;8.23;;;14.20;99.90;;;;;;5044132;28;20040;-41
2022/04/13 06:59:28;;;;;;;10.52;8.73;;;14.20;99.90;;;;;;5045012;28;20048;-40
2022/04/13 07:01:54;;;;;;;10.70;7.82;;;14.20;99.90;;;;;;5045098;28;20040;-42
2022/04/13 07:04:19;;;;;;;13.85;9.02;;;14.20;99.90;;;;;;5044924;28;20025;-40
2022/04/13 07:06:45;;;;;;;14.55;9.60;;;14.20;99.90;;;;;;5044942;28;20587;-42
2022/04/13 07:09:10;;;;;;;10.65;8.93;;;14.20;99.90;;;;;;5045216;28;20071;-42
2022/04/13 07:11:36;;;;;;;9.65;8.02;;;14.20;99.90;;;;;;5044942;28;20124;-39
2022/04/13 07:14:01;;;;;;;12.45;9.43;;;14.20;99.90;;;;;;5044787;28;20033;-42
2022/04/13 07:16:27;;;;;;;10.43;8.95;;;14.20;99.90;;;;;;5045275;28;20021;-37
2022/04/13 07:18:52;;;;;;;11.43;9.05;;;14.30;99.90;;;;;;5045246;28;20043;-40
2022/04/13 07:21:18;;;;;;;13.23;9.65;;;14.30;99.90;;;;;;5045313;28;20021;-42
2022/04/13 07:23:43;;;;;;;10.52;8.25;;;14.40;99.90;;;;;;5044299;28;20802;-42
2022/04/13 07:26:09;;;;;;;11.88;8.55;;;14.50;99.90;;;;;;5045394;28;20029;-41
2022/04/13 07:28:34;;;;;;;12.32;8.70;;;14.60;99.90;;;;;;5045421;28;20029;-43
2022/04/13 07:31:00;;;;;;;11.32;9.73;;;14.70;99.90;;;;;;5042027;28;20078;-42
2022/04/13 07:33:25;;;;;;;11.85;10.35;;;14.90;99.90;;;;;;5044929;28;20025;-41
2022/04/13 07:35:51;;;;;;;11.75;8.90;;;15.10;99.90;;;;;;5044955;28;20113;-46
2022/04/13 07:38:17;;;;;;;11.43;10.13;;;15.20;99.90;;;;;;5044598;28;20029;-43
2022/04/13 07:40:44;;;;;;;12.27;10.52;;;15.30;99.90;;;;;;5044577;28;20017;-40
2022/04/13 07:43:09;;;;;;;11.50;8.93;;;15.50;99.90;;;;;;5045618;28;20055;-41
2022/04/13 07:45:35;;;;;;;9.88;7.47;;;15.60;99.90;;;;;;5044067;28;20624;-42
2022/04/13 07:48:00;;;;;;;12.80;9.13;;;15.70;99.90;;;;;;5044500;28;20029;-41
2022/04/13 07:50:26;;;;;;;13.48;9.65;;;15.70;99.90;;;;;;5045601;28;20028;-41
2022/04/13 07:52:51;;;;;;;11.13;9.73;;;15.70;99.90;;;;;;5047986;28;20060;-42
2022/04/13 07:55:17;;;;;;;11.70;8.85;;;15.70;99.90;;;;;;5048789;28;20024;-41
2022/04/13 07:57:42;;;;;;;12.57;10.82;;;15.70;99.90;;;;;;5048425;28;20561;-42
2022/04/13 08:00:10;;;;;;;13.25;9.00;;;15.70;99.90;;;;;;5048561;28;20097;-42
2022/04/13 08:02:37;;;;;;;13.18;9.90;;;15.60;99.90;;;;;;5049056;28;20031;-42
2022/04/13 08:05:03;;;;;;;12.20;10.18;;;15.70;99.90;;;;;;5048443;28;20032;-41
2022/04/13 08:07:28;;;;;;;14.57;9.60;;;15.70;99.90;;;;;;5048558;28;20175;-42
2022/04/13 08:09:54;;;;;;;11.75;10.05;;;15.80;99.90;;;;;;5047828;28;20044;-42
2022/04/13 08:12:19;;;;;;;11.45;9.57;;;15.90;99.90;;;;;;5048929;28;20501;-41
2022/04/13 08:14:49;;;;;;;12.07;9.18;;;16.00;99.90;;;;;;5047584;28;20041;-42
2022/04/13 08:17:15;;;;;;;12.30;10.10;;;16.00;99.90;;;;;;5048670;28;20100;-43
2022/04/13 08:19:40;;;;;;;10.15;8.95;;;16.10;99.90;;;;;;5047567;28;20536;-43
2022/04/13 08:22:06;;;;;;;12.15;10.10;;;16.20;99.90;;;;;;5048245;28;20017;-43
2022/04/13 08:24:31;;;;;;;9.93;8.93;;;16.20;99.90;;;;;;5048409;28;20029;-42
2022/04/13 08:27:00;;;;;;;12.13;8.65;;;16.40;99.90;;;;;;5047071;28;20021;-42
2022/04/13 08:29:26;;;;;;;9.63;8.02;;;16.40;99.90;;;;;;5048725;28;20025;-41
2022/04/13 08:31:51;;;;;;;10.65;8.38;;;16.50;99.90;;;;;;5047565;28;20028;-42
2022/04/13 08:34:17;;;;;;;10.85;8.40;;;16.50;99.90;;;;;;5047571;28;20029;-42
2022/04/13 08:36:42;;;;;;;10.77;8.25;;;16.50;99.90;;;;;;5047511;28;20060;-43
2022/04/13 08:39:13;;;;;;;10.73;7.78;;;16.40;99.90;;;;;;5048080;28;20102;-42
2022/04/13 08:41:54;;;;;;;11.32;8.23;;;16.30;99.90;;;;;;5047430;28;20025;-42
2022/04/13 08:44:31;;;;;;;11.80;8.52;;;16.30;99.90;;;;;;5048437;28;20029;-42
2022/04/13 08:47:01;;;;;;;12.68;8.75;;;16.20;99.90;;;;;;5046973;28;20527;-41
2022/04/13 08:49:29;;;;;;;9.18;7.38;;;16.20;99.90;;;;;;5047461;28;20040;-42
2022/04/13 08:51:58;;;;;;;10.60;7.88;;;16.20;99.90;;;;;;5047706;28;20037;-42
2022/04/13 08:54:30;;;;;;;8.70;7.15;;;16.20;99.90;;;;;;5047889;28;20041;-43
2022/04/13 08:56:56;;;;;;;10.63;6.75;;;16.40;99.90;;;;;;5046583;28;20021;-43
2022/04/13 08:59:34;;;;;;;7.25;5.82;;;16.40;99.90;;;;;;5047701;28;20049;-43
2022/04/13 09:02:02;;;;;;;11.13;6.93;;;16.50;99.90;;;;;;5045917;28;20765;-42
2022/04/13 09:04:30;;;;;;;9.43;6.90;;;16.50;99.90;;;;;;5047340;28;20418;-42
2022/04/13 09:07:00;;;;;;;7.35;6.47;;;16.60;99.90;;;;;;5046852;28;20098;-42
2022/04/13 09:09:32;;;;;;;9.25;6.65;;;16.70;99.90;;;;;;5046942;28;20037;-42
2022/04/13 09:11:58;;;;;;;6.15;5.18;;;16.90;99.90;;;;;;5047169;28;20402;-42
2022/04/13 09:14:27;;;;;;;6.60;5.35;;;17.00;99.90;;;;;;5047688;28;20543;-41
2022/04/13 09:16:54;;;;;;;7.85;5.35;;;17.20;99.90;;;;;;5046109;28;20040;-41
2022/04/13 09:19:19;;;;;;;6.32;5.68;;;17.30;99.90;;;;;;5047063;28;20485;-41
2022/04/13 09:21:45;;;;;;;6.55;5.88;;;17.40;99.90;;;;;;5046161;28;20032;-43
2022/04/13 09:24:12;;;;;;;8.18;5.47;;;17.40;99.90;;;;;;5046409;28;20029;-42
2022/04/13 09:26:39;;;;;;;5.55;4.75;;;17.50;99.90;;;;;;5047488;28;20586;-43
2022/04/13 09:29:05;;;;;;;4.50;4.10;;;17.60;99.90;;;;;;5046316;28;20052;-41
2022/04/13 09:31:31;;;;;;;6.07;4.20;;;17.70;99.90;;;;;;5047182;28;20143;-42
2022/04/13 09:33:56;;;;;;;5.22;3.33;;;17.80;99.90;;;;;;5046422;28;20094;-42
2022/04/13 09:36:22;;;;;;;5.32;3.40;;;18.00;99.90;;;;;;5047278;28;20036;-42
2022/04/13 09:38:49;;;;;;;4.20;3.00;;;18.10;99.90;;;;;;5045589;28;20036;-42
2022/04/13 09:41:14;;;;;;;2.90;2.38;;;18.20;99.90;;;;;;5047492;28;20028;-42
2022/04/13 09:43:40;;;;;;;3.60;2.92;;;18.30;99.90;;;;;;5046819;28;20032;-42
2022/04/13 09:46:05;;;;;;;4.15;3.20;;;18.40;99.90;;;;;;5045522;28;20075;-41
2022/04/13 09:48:31;;;;;;;5.25;4.30;;;18.60;99.90;;;;;;5047148;28;20021;-42
2022/04/13 09:50:58;;;;;;;3.90;3.03;;;18.60;99.90;;;;;;5046164;28;20034;-43
2022/04/13 09:53:23;;;;;;;4.78;3.28;;;18.70;99.90;;;;;;5045897;28;20525;-42
2022/04/13 09:55:51;;;;;;;4.72;3.20;;;18.80;99.90;;;;;;5046381;28;20033;-41
2022/04/13 09:58:22;;;;;;;3.90;2.90;;;18.80;99.90;;;;;;5045894;28;20079;-43
2022/04/13 10:00:50;;;;;;;3.60;3.20;;;18.90;99.90;;;;;;5046113;28;20150;-43
2022/04/13 10:03:17;;;;;;;3.55;3.13;;;18.80;99.90;;;;;;5046054;28;20022;-42
2022/04/13 10:05:51;;;;;;;4.85;3.33;;;18.80;99.90;;;;;;5045071;28;20032;-40
2022/04/13 10:08:22;;;;;;;4.70;3.38;;;18.70;99.90;;;;;;5046608;28;20128;-41
2022/04/13 10:10:49;;;;;;;4.78;3.97;;;18.60;99.90;;;;;;5045815;28;20433;-43
2022/04/13 10:13:46;;;;;;;5.30;3.40;;;18.60;99.90;;;;;;5045656;28;20104;-43
2022/04/13 10:16:13;;;;;;;4.40;3.13;;;18.50;99.90;;;;;;5041988;28;20037;-42
2022/04/13 10:18:56;;;;;;;4.63;3.45;;;18.40;99.90;;;;;;5046687;28;20119;-38
2022/04/13 10:21:41;;;;;;;4.57;3.78;;;18.30;99.90;;;;;;5042847;28;20029;-42
2022/04/13 10:24:23;;;;;;;5.38;3.35;;;18.10;99.90;;;;;;5046121;28;20021;-44
2022/04/13 10:27:18;;;;;;;5.15;3.50;;;18.10;99.90;;;;;;5045127;28;20599;-44
2022/04/13 10:29:45;;;;;;;3.60;2.53;;;18.00;99.90;;;;;;5045186;28;20021;-43
2022/04/13 10:32:16;;;;;;;3.65;2.40;;;18.00;99.90;;;;;;5045968;28;20100;-44
2022/04/13 10:34:49;;;;;;;5.63;2.90;;;18.00;99.90;;;;;;5044765;28;20040;-43
2022/04/13 10:37:17;;;;;;;3.55;2.53;;;18.10;99.90;;;;;;5035948;28;20021;-42
2022/04/13 10:39:45;;;;;;;3.13;2.38;;;18.10;99.90;;;;;;5045197;28;20064;-42
2022/04/13 10:42:12;;;;;;;3.33;2.42;;;18.10;99.90;;;;;;5045732;28;20155;-44
2022/04/13 10:44:42;;;;;;;3.40;2.75;;;18.10;99.90;;;;;;5045794;28;20116;-43
2022/04/13 10:47:09;;;;;;;4.00;2.53;;;18.10;99.90;;;;;;5042479;28;20044;-43
2022/04/13 10:49:53;;;;;;;3.50;2.55;;;18.00;99.90;;;;;;5045513;28;20052;-43
2022/04/13 10:52:33;;;;;;;3.55;2.35;;;18.00;99.90;;;;;;5042461;28;20540;-41
2022/04/13 10:55:12;;;;;;;8.35;3.45;;;17.90;99.90;;;;;;5044828;28;20029;-44
2022/04/13 10:57:52;;;;;;;4.03;3.20;;;17.90;99.90;;;;;;5043639;28;20119;-42
2022/04/13 11:00:19;;;;;;;4.63;3.85;;;17.80;99.90;;;;;;5045097;28;20044;-43
2022/04/13 11:02:57;;;;;;;4.32;3.00;;;17.80;99.90;;;;;;5044160;28;20028;-41
2022/04/13 11:05:25;;;;;;;4.72;3.38;;;17.80;99.90;;;;;;5045949;28;20044;-42
2022/04/13 11:08:03;;;;;;;4.35;2.97;;;17.90;99.90;;;;;;5045174;28;20053;-42
2022/04/13 11:10:32;;;;;;;6.78;3.00;;;18.00;99.90;;;;;;5045195;28;20083;-41
2022/04/13 11:12:58;;;;;;;3.58;3.10;;;18.00;99.90;;;;;;5044734;28;20063;-42
2022/04/13 11:16:12;;;;;;;5.70;3.85;;;18.00;99.90;;;;;;5045836;28;20481;-42
2022/04/13 11:18:38;;;;;;;7.13;4.03;;;18.10;99.90;;;;;;5035181;28;20037;-38
2022/04/13 11:21:08;;;;;;;4.55;3.60;;;18.20;99.90;;;;;;5044907;28;20616;-43
2022/04/13 11:23:52;;;;;;;6.32;3.70;;;18.20;99.90;;;;;;5044705;28;20033;-41
2022/04/13 11:26:35;;;;;;;5.22;3.55;;;18.30;99.90;;;;;;5049456;28;20028;-42
2022/04/13 11:29:15;;;;;;;5.00;3.70;;;18.30;99.90;;;;;;5041613;28;20055;-42
2022/04/13 11:31:59;;;;;;;6.93;4.10;;;18.30;99.90;;;;;;5050269;28;20480;-43
2022/04/13 11:34:42;;;;;;;5.35;3.85;;;18.40;99.90;;;;;;5052215;28;20037;-41
2022/04/13 11:37:14;;;;;;;4.22;3.53;;;18.40;99.90;;;;;;5050890;28;20032;-42
2022/04/13 11:40:00;;;;;;;4.88;3.20;;;18.40;99.90;;;;;;5052016;28;20387;-42
2022/04/13 11:42:34;;;;;;;5.97;3.40;;;18.40;99.90;;;;;;5052318;28;20040;-42
2022/04/13 11:45:04;;;;;;;4.25;3.17;;;18.40;99.90;;;;;;5051114;28;20035;-42
2022/04/13 11:47:35;;;;;;;6.75;3.85;;;18.30;99.90;;;;;;5051610;28;20507;-42
2022/04/13 11:50:04;;;;;;;4.80;3.70;;;18.20;99.90;;;;;;5051405;28;20024;-42
2022/04/13 11:52:40;;;;;;;5.95;3.97;;;18.20;99.90;;;;;;5051210;28;20048;-42
2022/04/13 11:55:41;;;;;;;6.90;3.85;;;18.20;99.90;;;;;;5051330;28;20562;-42
2022/04/13 11:58:09;;;;;;;6.75;3.70;;;18.10;99.90;;;;;;5045581;28;20137;-42
2022/04/13 12:01:07;;;;;;;4.72;3.65;;;18.20;99.90;;;;;;5051850;28;20064;-43
2022/04/13 12:03:37;;;;;;;4.72;3.25;;;18.20;99.90;;;;;;5051284;28;20025;-43
2022/04/13 12:06:08;;;;;;;6.85;3.85;;;18.20;99.90;;;;;;5050567;28;20024;-43
2022/04/13 12:08:42;;;;;;;6.63;3.78;;;18.10;99.90;;;;;;5052006;28;20124;-42
2022/04/13 12:11:12;;;;;;;6.25;3.15;;;18.10;99.90;;;;;;5051454;28;20417;-44
2022/04/13 12:13:57;;;;;;;5.25;2.90;;;18.10;99.90;;;;;;5050575;28;20031;-41
2022/04/13 12:16:33;;;;;;;5.22;3.38;;;18.00;99.90;;;;;;5051761;28;20029;-43
2022/04/13 12:19:04;;;;;;;4.40;3.22;;;18.00;99.90;;;;;;5050110;28;20412;-41
2022/04/13 12:21:31;;;;;;;5.55;4.03;;;17.90;99.90;;;;;;5051512;28;20032;-43
2022/04/13 12:24:00;;;;;;;4.20;3.25;;;17.90;99.90;;;;;;5051102;28;20025;-43
2022/04/13 12:26:38;;;;;;;8.98;4.18;;;17.90;99.90;;;;;;5050641;28;20068;-42
2022/04/13 12:29:14;;;;;;;6.68;3.90;;;17.80;99.90;;;;;;5050557;28;20013;-42
2022/04/13 12:31:52;;;;;;;5.25;3.63;;;17.80;99.90;;;;;;5051841;28;20044;-42
2022/04/13 12:34:22;;;;;;;4.70;3.50;;;17.70;99.90;;;;;;5050702;28;20021;-42
2022/04/13 12:36:54;;;;;;;3.90;3.03;;;17.70;99.90;;;;;;5050377;28;20354;-41
2022/04/13 12:39:24;;;;;;;6.38;3.55;;;17.70;99.90;;;;;;5048232;28;20055;-42
2022/04/13 12:41:50;;;;;;;3.70;2.30;;;17.80;99.90;;;;;;5047345;28;20013;-42
2022/04/13 12:44:18;;;;;;;3.30;2.20;;;17.80;99.90;;;;;;5048031;28;20040;-42
2022/04/13 12:46:43;;;;;;;4.43;2.60;;;17.90;99.90;;;;;;5045171;28;20032;-42
2022/04/13 12:49:20;;;;;;;3.03;2.28;;;17.90;99.90;;;;;;5045388;28;20075;-43
2022/04/13 12:51:47;;;;;;;4.15;2.30;;;17.90;99.90;;;;;;5046081;28;20021;-43